Republica Dominicana

TAF

                               

                                                                                                                 SANTO DOMINGO 13 DE OCTUBRE DEL 2019

                                                                                              AEROP.INT. LAS AMERICAS JFPG-

 

FTDR31 MDSD 132200Z
TAF 

TAF MDPP 132200Z 1400/1500 06010KT 9999 FEW022 BECMG 1401/1403 00000KT=

TAF MDST 132200Z 1400/1500 13009KT SCT022 SCT300 PROB30 1400/1406 7000 TSRA FEW016CB BKN018=

TAF MDPC 132200Z 1400/1500 06004KT 9999 FEW020 SCT300 BECMG 1402/1404 00000KT=

TAF MDBH 132200Z 1400/1500 13010KT 9999 FEW014CB BKN016 SCT080 PRB30 1403/1409 8000 -TSRA FEW014 BKN016 BKN070 TEMPO 1410/1412 27005KT=

TAF MDJB 132200Z 1400/1500 00000KT 9999 FEW018 BECMG 1413/1415 09005KT=

TAF MDSD 132200Z 1400/1500 05008KT 9999 TS FEW018CB SCT020 SCT300 PROB30 1400/1406 8000 –TSRA FEW014CB SCT016 SCT300=

TAF MDLR 132200Z 1400/1500 00000KT 9999 FEW018CB SCT019 PROB30 1415/1421 8000 -TSRA FEW016CB BKN018=

TAF MDCY 132200Z 1400/1500 09008KT 9999 FEW017CB SCT020 SCT300 PROB30 1400/1406 8000 SH FEW016CB SCT017 BKN070=

MDPP AEROPUERTO INTERNACIONAL LA UNION PUERTO PLATA

MDST AEROPUERTO INTERNACIONAL DE SANTIAGO

MDPC AEROPUERTO INTERNACIONAL PUNTA CANA

MDBH AEROPUERTO INTERNACIONAL DE BARAHONA

MDJB AEROPUERTO INTERNACIONAL JOAQUIN BALAGUER

MDSD AEROPUERTO INTERNACIONAL LAS AMERICAS

MDLR AEROPUERTO INTERNACIONAL LA ROMANA

MDCY AEROPUERTO INTERNACIONAL DE CATEY

 

MDSD//HATY MOTA

MDPP//  O.GUZMAN

MDST// D.VOLQUEZ

MDPC//  J.FELIZ

MDBH// GOMEZ

MDJB // CAPELLAN

MDLR // ALFIDA BERIHUETE

MDCY//DIOSAIDA FERMIN

 




Tamaño letra

Contraste

Otros